createdAt,value
2018-01-15T00:00:42.406Z,66.50
2018-01-15T00:03:09.947Z,65.90
2018-01-15T00:05:37.471Z,65.90
2018-01-15T00:08:05.050Z,65.70
2018-01-15T00:10:32.626Z,65.30
2018-01-15T00:13:00.279Z,65.40
2018-01-15T00:15:28.079Z,65.50
2018-01-15T00:17:55.579Z,66.20
2018-01-15T00:20:23.133Z,66.90
2018-01-15T00:22:51.984Z,66.30
2018-01-15T00:25:19.707Z,66.30
2018-01-15T00:27:47.385Z,66.40
2018-01-15T00:30:15.370Z,66.50
2018-01-15T00:32:43.194Z,66.50
2018-01-15T00:35:11.620Z,66.30
2018-01-15T00:37:40.156Z,66.70
2018-01-15T00:40:08.119Z,66.40
2018-01-15T00:42:35.676Z,66.40
2018-01-15T00:45:03.808Z,66.30
2018-01-15T00:47:31.371Z,66.30
2018-01-15T00:49:58.994Z,66.30
2018-01-15T00:52:26.513Z,66.10
2018-01-15T00:54:54.830Z,66.30
2018-01-15T00:57:23.150Z,66.30
2018-01-15T00:59:50.713Z,66.80
2018-01-15T01:02:18.844Z,66.90
2018-01-15T01:04:46.362Z,66.80
2018-01-15T01:07:14.300Z,66.80
2018-01-15T01:09:42.286Z,66.80
2018-01-15T01:12:10.344Z,66.90
2018-01-15T01:14:37.994Z,66.70
2018-01-15T01:17:06.116Z,66.80
2018-01-15T01:19:33.909Z,66.70
2018-01-15T01:22:01.439Z,67.20
2018-01-15T01:24:29.019Z,66.50
2018-01-15T01:26:56.520Z,66.60
2018-01-15T01:29:24.119Z,66.60
2018-01-15T01:31:53.014Z,67.40
2018-01-15T01:34:20.589Z,67.30
2018-01-15T01:36:48.252Z,68.80
2018-01-15T01:39:15.828Z,68.30
2018-01-15T01:41:43.351Z,67.20
2018-01-15T01:44:10.855Z,67.50
2018-01-15T01:46:38.443Z,67.40
2018-01-15T01:49:05.961Z,67.50
2018-01-15T01:51:33.552Z,67.90
2018-01-15T01:54:01.110Z,68.10
2018-01-15T01:56:28.654Z,68.00
2018-01-15T01:58:56.663Z,67.90
2018-01-15T02:01:24.162Z,67.40
2018-01-15T02:03:51.685Z,67.70
2018-01-15T02:06:19.584Z,68.00
2018-01-15T02:08:47.154Z,68.00
2018-01-15T02:11:14.691Z,68.20
2018-01-15T02:13:42.199Z,68.00
2018-01-15T02:16:09.741Z,68.10
2018-01-15T02:18:37.389Z,68.10
2018-01-15T02:21:05.630Z,67.90
2018-01-15T02:23:33.914Z,68.30
2018-01-15T02:26:01.501Z,67.70
2018-01-15T02:28:29.226Z,67.80
2018-01-15T02:30:56.753Z,67.40
2018-01-15T02:33:25.402Z,67.70
2018-01-15T02:35:53.447Z,67.40
2018-01-15T02:38:22.191Z,67.40
2018-01-15T02:40:51.212Z,67.20
2018-01-15T02:43:18.850Z,67.60
2018-01-15T02:45:46.774Z,67.80
2018-01-15T02:48:15.172Z,67.40
2018-01-15T02:50:42.703Z,67.40
2018-01-15T02:53:10.235Z,67.10
2018-01-15T02:55:38.491Z,67.20
2018-01-15T02:58:06.072Z,67.50
2018-01-15T03:00:33.630Z,67.50
2018-01-15T03:03:01.151Z,67.30
2018-01-15T03:05:29.316Z,67.20
2018-01-15T03:07:56.990Z,67.30
2018-01-15T03:10:24.846Z,68.00
2018-01-15T03:12:53.094Z,67.60
2018-01-15T03:15:20.991Z,67.30
2018-01-15T03:17:48.529Z,67.50
2018-01-15T03:20:16.953Z,67.60
2018-01-15T03:22:44.670Z,67.60
2018-01-15T03:25:13.830Z,67.70
2018-01-15T03:27:41.538Z,67.70
2018-01-15T03:30:09.659Z,67.80
2018-01-15T03:32:37.210Z,67.40
2018-01-15T03:35:04.761Z,67.40
2018-01-15T03:37:34.113Z,67.50
2018-01-15T03:40:02.702Z,67.30
2018-01-15T03:42:30.918Z,67.30
2018-01-15T03:44:58.414Z,66.90
2018-01-15T03:47:25.939Z,66.70
2018-01-15T03:49:53.442Z,67.20
2018-01-15T03:52:20.986Z,67.30
2018-01-15T03:54:48.757Z,67.40
2018-01-15T03:57:16.281Z,67.30
2018-01-15T03:59:43.817Z,66.80
2018-01-15T04:02:11.383Z,66.70
2018-01-15T04:04:39.184Z,66.70
2018-01-15T04:07:06.762Z,66.90
2018-01-15T04:09:35.065Z,66.70
2018-01-15T04:12:03.449Z,67.20
2018-01-15T04:14:31.048Z,67.20
2018-01-15T04:16:59.015Z,67.60
2018-01-15T04:19:26.881Z,67.40
2018-01-15T04:21:54.503Z,67.40
2018-01-15T04:24:21.999Z,67.70
2018-01-15T04:26:50.340Z,67.60
2018-01-15T04:29:19.573Z,67.30
2018-01-15T04:31:47.262Z,67.30
2018-01-15T04:34:14.969Z,67.10
2018-01-15T04:36:44.398Z,67.40
2018-01-15T04:39:11.961Z,67.40
2018-01-15T04:41:39.511Z,67.20
2018-01-15T04:44:07.050Z,67.40
2018-01-15T04:46:35.458Z,68.30
2018-01-15T04:49:03.130Z,68.30
2018-01-15T04:51:31.220Z,68.00
2018-01-15T04:53:58.774Z,68.00
2018-01-15T04:56:26.323Z,68.40
2018-01-15T04:58:53.898Z,68.70
2018-01-15T05:01:21.638Z,68.60
2018-01-15T05:03:49.125Z,68.50
2018-01-15T05:06:17.151Z,68.70
2018-01-15T05:08:44.683Z,68.60
2018-01-15T05:11:13.884Z,67.70
2018-01-15T05:13:41.787Z,67.70
2018-01-15T05:16:09.439Z,67.60
2018-01-15T05:18:37.307Z,68.40
2018-01-15T05:21:05.187Z,67.70
2018-01-15T05:23:32.910Z,67.40
2018-01-15T05:26:01.252Z,67.40
2018-01-15T05:28:28.751Z,67.70
2018-01-15T05:30:57.051Z,67.70
2018-01-15T05:33:25.273Z,67.60
2018-01-15T05:35:53.251Z,67.70
2018-01-15T05:38:20.759Z,67.90
2018-01-15T05:40:48.458Z,67.90
2018-01-15T05:43:17.392Z,68.20
2018-01-15T05:45:45.689Z,67.50
2018-01-15T05:48:13.246Z,67.50
2018-01-15T05:50:40.884Z,67.50
2018-01-15T05:53:08.440Z,67.60
2018-01-15T05:55:35.988Z,67.40
2018-01-15T05:58:03.549Z,67.10
2018-01-15T06:00:31.171Z,67.40
2018-01-15T06:02:58.682Z,67.50
2018-01-15T06:05:26.219Z,67.50
2018-01-15T06:07:53.738Z,67.30
2018-01-15T06:10:21.701Z,67.20
2018-01-15T06:12:49.228Z,67.30
2018-01-15T06:15:17.035Z,67.70
2018-01-15T06:17:44.586Z,67.50
2018-01-15T06:20:12.128Z,67.60
2018-01-15T06:22:39.769Z,67.50
2018-01-15T06:25:07.320Z,67.50
2018-01-15T06:27:35.936Z,67.70
2018-01-15T06:30:04.182Z,67.60
2018-01-15T06:32:32.552Z,68.50
2018-01-15T06:35:00.868Z,68.50
2018-01-15T06:37:29.167Z,68.80
2018-01-15T06:39:56.806Z,69.20
2018-01-15T06:42:24.334Z,69.50
2018-01-15T06:44:53.011Z,70.30
2018-01-15T06:47:29.937Z,70.30
2018-01-15T06:50:11.922Z,71.10
2018-01-15T06:52:40.013Z,71.40
2018-01-15T06:55:07.531Z,71.70
2018-01-15T06:57:35.261Z,71.90
2018-01-15T07:00:02.819Z,72.20
2018-01-15T07:02:30.508Z,72.40
2018-01-15T07:04:58.063Z,72.50
2018-01-15T07:07:25.793Z,72.50
2018-01-15T07:09:54.146Z,72.60
2018-01-15T07:12:21.705Z,72.80
2018-01-15T07:14:49.223Z,72.90
2018-01-15T07:17:16.760Z,73.10
2018-01-15T07:19:44.289Z,73.00
2018-01-15T07:22:12.058Z,72.90
2018-01-15T07:24:39.955Z,72.90
2018-01-15T07:27:07.473Z,72.90
2018-01-15T07:29:35.665Z,72.90
2018-01-15T07:32:03.176Z,73.30
2018-01-15T07:34:31.229Z,73.00
2018-01-15T07:36:58.756Z,72.90
2018-01-15T07:39:26.810Z,72.70
2018-01-15T07:41:54.386Z,72.60
2018-01-15T07:44:21.938Z,72.40
2018-01-15T07:46:49.702Z,72.30
2018-01-15T07:49:17.341Z,72.20
2018-01-15T07:51:45.322Z,72.10
2018-01-15T07:54:12.928Z,71.90
2018-01-15T07:56:40.643Z,71.50
2018-01-15T07:59:08.614Z,71.50
2018-01-15T08:01:36.257Z,71.50
2018-01-15T08:04:03.771Z,71.20
2018-01-15T08:06:32.306Z,71.20
2018-01-15T08:08:59.980Z,71.00
2018-01-15T08:11:27.513Z,70.60
2018-01-15T08:13:55.782Z,70.30
2018-01-15T08:16:24.802Z,71.10
2018-01-15T08:18:52.715Z,70.40
2018-01-15T08:21:20.555Z,70.20
2018-01-15T08:23:48.118Z,69.80
2018-01-15T08:26:16.209Z,69.70
2018-01-15T08:28:43.769Z,70.80
2018-01-15T08:31:11.729Z,70.40
2018-01-15T08:33:39.344Z,69.60
2018-01-15T08:36:07.514Z,69.30
2018-01-15T08:38:35.859Z,69.50
2018-01-15T08:41:04.195Z,69.40
2018-01-15T08:43:32.549Z,69.60
2018-01-15T08:46:00.956Z,70.30
2018-01-15T08:48:28.652Z,69.50
2018-01-15T08:50:56.660Z,69.90
2018-01-15T08:53:25.107Z,69.80
2018-01-15T08:55:52.683Z,69.70
2018-01-15T08:58:20.835Z,69.30
2018-01-15T09:00:48.605Z,69.10
2018-01-15T09:03:16.262Z,69.20
2018-01-15T09:05:43.809Z,69.10
2018-01-15T09:08:11.825Z,69.00
2018-01-15T09:10:39.373Z,68.90
2018-01-15T09:13:06.948Z,68.80
2018-01-15T09:15:34.751Z,68.60
2018-01-15T09:18:02.325Z,68.40
2018-01-15T09:20:29.844Z,68.60
2018-01-15T09:22:57.887Z,68.20
2018-01-15T09:25:25.528Z,68.10
2018-01-15T09:27:53.148Z,68.10
2018-01-15T09:30:20.677Z,68.20
2018-01-15T09:32:49.053Z,68.30
2018-01-15T09:35:16.651Z,67.80
2018-01-15T09:37:44.219Z,67.60
2018-01-15T09:40:11.795Z,67.50
2018-01-15T09:42:39.291Z,67.40
2018-01-15T09:45:07.967Z,67.70
2018-01-15T09:47:35.503Z,67.30
2018-01-15T09:50:03.529Z,67.10
2018-01-15T09:52:31.026Z,66.90
2018-01-15T09:54:59.386Z,67.00
2018-01-15T09:57:26.933Z,67.00
2018-01-15T09:59:56.729Z,66.80
2018-01-15T10:02:24.495Z,66.60
2018-01-15T10:04:52.260Z,66.60
2018-01-15T10:07:20.561Z,66.10
2018-01-15T10:09:49.916Z,66.00
2018-01-15T10:12:17.454Z,65.80
2018-01-15T10:14:45.078Z,66.10
2018-01-15T10:17:13.044Z,65.90
2018-01-15T10:19:40.755Z,65.80
2018-01-15T10:22:08.370Z,66.00
2018-01-15T10:24:36.293Z,65.80
2018-01-15T10:27:03.804Z,65.60
2018-01-15T10:29:31.339Z,66.10
2018-01-15T10:31:58.909Z,65.70
2018-01-15T10:34:27.056Z,65.20
2018-01-15T10:36:54.887Z,65.30
2018-01-15T10:39:22.826Z,65.30
2018-01-15T10:41:50.624Z,65.10
2018-01-15T10:44:18.182Z,64.80
2018-01-15T10:46:45.919Z,65.10
2018-01-15T10:49:13.518Z,64.90
2018-01-15T10:51:41.254Z,65.10
2018-01-15T10:54:08.980Z,65.00
2018-01-15T10:56:37.505Z,65.10
2018-01-15T10:59:05.250Z,64.80
2018-01-15T11:01:33.165Z,64.40
2018-01-15T11:04:00.675Z,64.10
2018-01-15T11:06:28.554Z,64.20
2018-01-15T11:08:56.514Z,64.40
2018-01-15T11:11:24.506Z,64.40
2018-01-15T11:13:52.084Z,64.20
2018-01-15T11:16:20.021Z,63.90
2018-01-15T11:22:02.865Z,63.40
2018-01-15T11:24:30.404Z,63.50
2018-01-15T11:26:58.889Z,62.80
2018-01-15T11:29:26.491Z,62.40
2018-01-15T11:31:54.765Z,61.70
2018-01-15T11:34:22.889Z,61.90
2018-01-15T11:36:50.438Z,61.90
2018-01-15T11:39:18.769Z,61.80
2018-01-15T11:41:46.501Z,61.80
2018-01-15T11:44:14.282Z,61.70
2018-01-15T11:49:17.370Z,61.60
2018-01-15T11:51:45.085Z,61.40
2018-01-15T11:54:12.799Z,61.00
2018-01-15T11:56:40.465Z,61.10
2018-01-15T11:59:08.917Z,60.90
2018-01-15T12:02:02.391Z,61.10
2018-01-15T12:04:35.067Z,60.60
2018-01-15T12:07:04.040Z,60.20
2018-01-15T12:09:32.086Z,60.20
2018-01-15T12:12:00.019Z,60.10
2018-01-15T12:14:28.998Z,60.00
2018-01-15T12:16:56.545Z,60.00
2018-01-15T12:19:24.088Z,60.10
2018-01-15T12:21:52.439Z,59.90
2018-01-15T12:24:20.496Z,59.80
2018-01-15T12:26:48.058Z,59.70
2018-01-15T12:29:15.610Z,59.80
2018-01-15T12:31:43.792Z,59.50
2018-01-15T12:34:12.877Z,59.70
2018-01-15T12:36:40.408Z,59.70
2018-01-15T12:39:07.920Z,59.70
2018-01-15T12:41:35.439Z,59.60
2018-01-15T12:44:03.751Z,59.70
2018-01-15T12:46:31.498Z,59.70
2018-01-15T12:48:59.036Z,59.30
2018-01-15T12:51:27.264Z,59.20
2018-01-15T12:53:55.581Z,58.70
2018-01-15T12:56:23.308Z,58.50
2018-01-15T12:58:50.886Z,58.10
2018-01-15T13:01:18.413Z,57.90
2018-01-15T13:03:45.968Z,57.70
2018-01-15T13:06:19.478Z,57.40
2018-01-15T13:09:07.845Z,57.10
2018-01-15T13:11:36.293Z,57.50
2018-01-15T13:14:03.848Z,57.50
2018-01-15T13:16:31.601Z,57.20
2018-01-15T13:18:59.267Z,57.50
2018-01-15T13:21:26.762Z,57.50
2018-01-15T13:23:54.265Z,57.50
2018-01-15T13:26:22.414Z,57.30
2018-01-15T13:28:49.908Z,57.20
2018-01-15T13:31:17.418Z,57.20
2018-01-15T13:33:45.784Z,57.20
2018-01-15T13:36:13.367Z,57.10
2018-01-15T13:38:40.876Z,57.20
2018-01-15T13:41:08.430Z,57.20
2018-01-15T13:43:35.992Z,57.20
2018-01-15T13:46:04.458Z,57.20
2018-01-15T13:48:32.468Z,57.10
2018-01-15T13:51:00.105Z,57.20
2018-01-15T13:53:28.434Z,56.90
2018-01-15T13:55:56.075Z,56.80
2018-01-15T13:58:23.585Z,57.10
2018-01-15T14:00:51.218Z,57.50
2018-01-15T14:03:18.765Z,57.30
2018-01-15T14:05:47.120Z,57.50
2018-01-15T14:08:14.698Z,57.50
2018-01-15T14:10:42.539Z,57.70
2018-01-15T14:13:11.004Z,57.80
2018-01-15T14:15:39.004Z,57.90
2018-01-15T14:18:06.736Z,57.80
2018-01-15T14:20:35.314Z,58.10
2018-01-15T14:23:02.880Z,58.30
2018-01-15T14:25:31.923Z,58.50
2018-01-15T14:28:00.369Z,58.70
2018-01-15T14:30:28.356Z,58.70
2018-01-15T14:32:56.084Z,58.80
2018-01-15T14:35:23.794Z,58.80
2018-01-15T14:37:52.764Z,59.10
2018-01-15T14:40:20.554Z,59.10
2018-01-15T14:42:48.678Z,58.90
2018-01-15T14:45:16.346Z,58.90
2018-01-15T14:47:43.964Z,58.80
2018-01-15T14:50:11.539Z,58.80
2018-01-15T14:52:39.817Z,58.90
2018-01-15T14:55:07.431Z,58.80
2018-01-15T14:57:35.193Z,58.80
2018-01-15T15:00:02.836Z,58.90
2018-01-15T15:02:30.458Z,59.10
2018-01-15T15:04:58.340Z,58.90
2018-01-15T15:07:26.271Z,58.90
2018-01-15T15:09:54.202Z,58.70
2018-01-15T15:12:22.006Z,58.80
2018-01-15T15:14:49.521Z,58.90
2018-01-15T15:17:17.101Z,58.70
2018-01-15T15:19:45.364Z,59.00
2018-01-15T15:22:13.263Z,59.10
2018-01-15T15:24:41.015Z,59.00
2018-01-15T15:27:08.878Z,59.20
2018-01-15T15:29:37.279Z,59.50
2018-01-15T15:32:05.684Z,59.60
2018-01-15T15:34:34.142Z,59.60
2018-01-15T15:37:01.982Z,59.60
2018-01-15T15:39:30.053Z,59.50
2018-01-15T15:41:57.681Z,59.60
2018-01-15T15:44:25.207Z,59.80
2018-01-15T15:46:54.386Z,59.80
2018-01-15T15:49:22.129Z,59.80
2018-01-15T15:51:50.234Z,60.10
2018-01-15T15:54:17.937Z,60.30
2018-01-15T15:56:45.473Z,60.60
2018-01-15T15:59:13.816Z,60.50
2018-01-15T16:01:41.324Z,60.50
2018-01-15T16:04:09.098Z,60.60
2018-01-15T16:06:37.244Z,60.60
2018-01-15T16:09:04.803Z,60.80
2018-01-15T16:11:33.106Z,60.70
2018-01-15T16:14:01.200Z,60.70
2018-01-15T16:16:28.838Z,60.80
2018-01-15T16:18:56.477Z,60.80
2018-01-15T16:21:24.166Z,60.60
2018-01-15T16:23:52.404Z,60.90
2018-01-15T16:26:19.979Z,61.00
2018-01-15T16:28:48.264Z,61.40
2018-01-15T16:33:49.603Z,61.50
2018-01-15T16:36:17.320Z,61.70
2018-01-15T16:38:44.811Z,61.80
2018-01-15T16:41:12.894Z,61.60
2018-01-15T16:43:40.406Z,62.00
2018-01-15T16:46:09.356Z,62.90
2018-01-15T16:48:37.714Z,61.80
2018-01-15T16:51:05.445Z,61.80
2018-01-15T16:53:32.928Z,61.90
2018-01-15T16:56:00.675Z,61.70
2018-01-15T16:58:28.236Z,61.50
2018-01-15T17:00:55.930Z,61.70
2018-01-15T17:03:23.591Z,61.90
2018-01-15T17:05:52.038Z,61.50
2018-01-15T17:08:19.590Z,61.50
2018-01-15T17:10:47.133Z,61.30
2018-01-15T17:13:15.446Z,61.50
2018-01-15T17:15:43.471Z,61.40
2018-01-15T17:18:11.187Z,61.40
2018-01-15T17:20:38.706Z,61.50
2018-01-15T17:23:06.679Z,61.50
2018-01-15T17:25:36.000Z,61.60
2018-01-15T17:28:03.582Z,61.50
2018-01-15T17:30:32.468Z,61.40
2018-01-15T17:33:00.134Z,61.40
2018-01-15T17:35:27.700Z,61.40
2018-01-15T17:37:56.748Z,61.20
2018-01-15T17:40:24.490Z,61.10
2018-01-15T17:42:52.074Z,61.20
2018-01-15T17:45:19.840Z,61.20
2018-01-15T17:47:48.333Z,61.20
2018-01-15T17:50:15.927Z,61.20
2018-01-15T17:52:44.828Z,61.20
2018-01-15T17:55:13.248Z,61.10
2018-01-15T17:57:40.807Z,61.10
2018-01-15T18:00:08.846Z,60.90
2018-01-15T18:02:36.359Z,61.20
2018-01-15T18:05:03.915Z,61.00
2018-01-15T18:07:32.584Z,60.90
2018-01-15T18:10:00.110Z,61.40
2018-01-15T18:12:28.885Z,61.30
2018-01-15T18:14:56.661Z,61.40
2018-01-15T18:17:24.176Z,61.60
2018-01-15T18:19:51.754Z,61.30
2018-01-15T18:22:20.806Z,61.00
2018-01-15T18:24:48.290Z,61.00
2018-01-15T18:27:16.004Z,60.80
2018-01-15T18:29:43.588Z,60.60
2018-01-15T18:32:11.250Z,60.60
2018-01-15T18:34:38.775Z,60.60
2018-01-15T18:37:06.294Z,60.60
2018-01-15T18:39:34.480Z,60.50
2018-01-15T18:42:02.079Z,60.90
2018-01-15T18:44:30.067Z,61.90
2018-01-15T18:46:57.673Z,62.30
2018-01-15T18:49:25.258Z,62.20
2018-01-15T18:51:53.781Z,62.10
2018-01-15T18:54:21.300Z,62.20
2018-01-15T18:56:49.474Z,61.70
2018-01-15T18:59:17.173Z,62.00
2018-01-15T19:01:45.149Z,62.00
2018-01-15T19:04:13.510Z,61.60
2018-01-15T19:06:41.065Z,61.30
2018-01-15T19:09:08.685Z,61.40
2018-01-15T19:11:36.585Z,61.40
2018-01-15T19:14:04.180Z,61.30
2018-01-15T19:16:31.894Z,61.40
2018-01-15T19:19:00.205Z,61.20
2018-01-15T19:21:27.883Z,61.20
2018-01-15T19:23:55.389Z,61.40
2018-01-15T19:26:23.088Z,61.40
2018-01-15T19:28:50.853Z,61.30
2018-01-15T19:31:18.408Z,61.30
2018-01-15T19:33:45.963Z,61.40
2018-01-15T19:36:19.165Z,61.30
2018-01-15T19:38:47.641Z,61.60
2018-01-15T19:41:15.241Z,61.70
2018-01-15T19:44:02.275Z,61.70
2018-01-15T19:46:35.423Z,61.90
2018-01-15T19:49:08.764Z,62.20
2018-01-15T19:51:42.022Z,62.50
2018-01-15T19:54:15.266Z,63.50
2018-01-15T19:56:48.687Z,62.90
2018-01-15T19:59:22.165Z,63.10
2018-01-15T20:01:55.381Z,63.30
2018-01-15T20:04:28.695Z,63.00
2018-01-15T20:07:02.503Z,63.10
2018-01-15T20:09:35.645Z,63.00
2018-01-15T20:12:03.173Z,62.70
2018-01-15T20:14:30.823Z,62.70
2018-01-15T20:16:59.163Z,62.60
2018-01-15T20:19:27.432Z,62.40
2018-01-15T20:21:55.922Z,62.20
2018-01-15T20:24:23.507Z,62.20
2018-01-15T20:26:51.856Z,62.00
2018-01-15T20:29:19.377Z,62.00
2018-01-15T20:31:47.194Z,61.90
2018-01-15T20:34:14.683Z,61.60
2018-01-15T20:36:42.193Z,61.80
2018-01-15T20:39:11.413Z,61.50
2018-01-15T20:41:39.173Z,61.50
2018-01-15T20:44:07.466Z,61.60
2018-01-15T20:46:35.001Z,61.70
2018-01-15T20:49:02.690Z,61.60
2018-01-15T20:51:30.222Z,61.50
2018-01-15T20:53:57.748Z,61.50
2018-01-15T20:56:25.288Z,61.40
2018-01-15T20:58:52.830Z,61.50
2018-01-15T21:01:22.718Z,61.50
2018-01-15T21:03:50.285Z,61.20
2018-01-15T21:06:18.338Z,61.20
2018-01-15T21:08:45.863Z,61.20
2018-01-15T21:11:13.480Z,61.20
2018-01-15T21:13:41.236Z,61.00
2018-01-15T21:16:09.119Z,60.90
2018-01-15T21:18:36.644Z,60.80
2018-01-15T21:21:04.227Z,60.90
2018-01-15T21:23:31.786Z,60.90
2018-01-15T21:25:59.461Z,60.90
2018-01-15T21:28:26.986Z,61.20
2018-01-15T21:30:55.305Z,61.10
2018-01-15T21:33:23.185Z,61.10
2018-01-15T21:35:51.941Z,60.80
2018-01-15T21:38:19.996Z,60.80
2018-01-15T21:40:48.369Z,60.70
2018-01-15T21:43:17.316Z,60.50
2018-01-15T21:45:45.645Z,60.40
2018-01-15T21:48:13.198Z,60.40
2018-01-15T21:50:40.750Z,60.60
2018-01-15T21:53:08.243Z,60.70
2018-01-15T21:55:35.782Z,60.90
2018-01-15T21:58:03.491Z,60.70
2018-01-15T22:00:31.011Z,60.60
2018-01-15T22:02:58.674Z,60.50
2018-01-15T22:05:26.621Z,60.60
2018-01-15T22:07:54.160Z,60.60
2018-01-15T22:10:21.916Z,60.80
2018-01-15T22:12:50.657Z,61.00
2018-01-15T22:15:18.193Z,60.90
2018-01-15T22:17:46.145Z,60.80
2018-01-15T22:20:16.387Z,61.10
2018-01-15T22:22:43.979Z,60.70
2018-01-15T22:25:11.567Z,61.10
2018-01-15T22:27:39.098Z,61.20
2018-01-15T22:30:07.168Z,61.20
2018-01-15T22:32:34.723Z,61.50
2018-01-15T22:35:02.998Z,63.80
2018-01-15T22:37:31.091Z,65.50
2018-01-15T22:39:58.811Z,68.50
2018-01-15T22:42:27.132Z,72.60
2018-01-15T22:44:55.210Z,72.40
2018-01-15T22:47:23.781Z,73.20
2018-01-15T22:49:51.346Z,72.90
2018-01-15T22:52:18.887Z,73.00
2018-01-15T22:54:46.681Z,71.60
2018-01-15T22:57:14.191Z,74.10
2018-01-15T22:59:41.690Z,73.20
2018-01-15T23:02:09.533Z,73.50
2018-01-15T23:04:37.198Z,71.70
2018-01-15T23:07:04.771Z,73.30
2018-01-15T23:09:32.632Z,72.40
2018-01-15T23:12:00.261Z,73.60
2018-01-15T23:14:29.215Z,74.60
2018-01-15T23:16:56.814Z,74.50
2018-01-15T23:19:25.627Z,74.60
2018-01-15T23:21:53.298Z,74.60
2018-01-15T23:24:21.771Z,75.10
2018-01-15T23:26:49.294Z,74.30
2018-01-15T23:29:17.574Z,75.50
2018-01-15T23:31:45.710Z,75.20
2018-01-15T23:34:13.322Z,75.40
2018-01-15T23:36:40.913Z,75.80
2018-01-15T23:39:08.475Z,79.90
2018-01-15T23:41:36.335Z,78.80
2018-01-15T23:44:03.834Z,79.60
2018-01-15T23:46:32.351Z,81.20
2018-01-15T23:48:59.941Z,81.20
2018-01-15T23:51:27.498Z,80.60
2018-01-15T23:53:55.697Z,79.80
2018-01-15T23:56:23.530Z,80.60
2018-01-15T23:58:52.228Z,81.60
